createdAt,value
2022-08-30T00:02:54.954Z,100556.81
2022-08-30T00:07:59.599Z,100561.00
2022-08-30T00:13:03.220Z,100568.44
2022-08-30T00:18:06.854Z,100574.09
2022-08-30T00:23:10.927Z,100566.94
2022-08-30T00:28:14.386Z,100566.09
2022-08-30T00:33:17.862Z,100569.31
2022-08-30T00:38:24.256Z,100572.75
2022-08-30T00:43:31.021Z,100576.34
2022-08-30T00:48:34.523Z,100573.03
2022-08-30T00:53:42.353Z,100575.63
2022-08-30T00:58:48.278Z,100579.09
2022-08-30T01:03:51.196Z,100575.63
2022-08-30T01:08:55.478Z,100583.63
2022-08-30T01:13:58.426Z,100574.63
2022-08-30T01:19:01.671Z,100575.63
2022-08-30T01:24:08.471Z,100583.78
2022-08-30T01:29:17.884Z,100568.63
2022-08-30T01:34:20.660Z,100583.06
2022-08-30T01:39:25.942Z,100590.19
2022-08-30T01:44:28.626Z,100586.50
2022-08-30T01:49:31.344Z,100586.38
2022-08-30T01:54:38.586Z,100584.28
2022-08-30T01:59:47.369Z,100578.00
2022-08-30T02:04:51.739Z,100584.28
2022-08-30T02:09:56.670Z,100594.75
2022-08-30T02:14:59.345Z,100591.66
2022-08-30T02:20:02.227Z,100587.66
2022-08-30T02:25:20.608Z,100580.03
2022-08-30T02:30:24.052Z,100576.13
2022-08-30T02:35:27.025Z,100573.28
2022-08-30T02:40:31.627Z,100569.47
2022-08-30T02:45:34.913Z,100572.66
2022-08-30T02:50:40.854Z,100569.59
2022-08-30T02:55:45.857Z,100566.50
2022-08-30T03:00:48.578Z,100563.56
2022-08-30T03:05:54.018Z,100564.28
2022-08-30T03:10:58.095Z,100560.84
2022-08-30T03:16:00.816Z,100553.44
2022-08-30T03:21:04.353Z,100555.66
2022-08-30T03:26:08.528Z,100555.56
2022-08-30T03:31:11.547Z,100558.25
2022-08-30T03:36:14.290Z,100556.41
2022-08-30T03:41:18.392Z,100557.00
2022-08-30T03:46:21.078Z,100562.06
2022-08-30T03:51:29.683Z,100568.34
2022-08-30T03:56:33.845Z,100565.53
2022-08-30T04:01:36.609Z,100577.22
2022-08-30T04:06:39.567Z,100568.13
2022-08-30T04:11:43.686Z,100568.97
2022-08-30T04:16:46.637Z,100571.69
2022-08-30T04:21:49.617Z,100583.38
2022-08-30T04:26:53.647Z,100582.50
2022-08-30T04:31:56.364Z,100590.63
2022-08-30T04:36:59.064Z,100595.19
2022-08-30T04:42:03.288Z,100598.88
2022-08-30T04:47:06.160Z,100598.88
2022-08-30T04:52:10.852Z,100599.75
2022-08-30T04:57:14.968Z,100604.28
2022-08-30T05:02:18.192Z,100605.16
2022-08-30T05:07:20.957Z,100617.84
2022-08-30T05:12:25.642Z,100619.56
2022-08-30T05:17:28.437Z,100623.13
2022-08-30T05:22:31.159Z,100626.69
2022-08-30T05:27:37.808Z,100630.25
2022-08-30T05:32:41.146Z,100635.53
2022-08-30T05:37:44.382Z,100640.09
2022-08-30T05:42:48.747Z,100642.72
2022-08-30T05:47:51.477Z,100648.97
2022-08-30T05:52:54.375Z,100643.44
2022-08-30T05:57:59.426Z,100637.88
2022-08-30T06:03:03.148Z,100637.75
2022-08-30T06:08:05.968Z,100643.94
2022-08-30T06:13:10.683Z,100635.81
2022-08-30T06:18:14.290Z,100638.41
2022-08-30T06:23:17.813Z,100639.25
2022-08-30T06:28:21.995Z,100644.53
2022-08-30T06:33:24.708Z,100649.88
2022-08-30T06:38:27.789Z,100657.84
2022-08-30T06:43:32.004Z,100650.59
2022-08-30T06:48:34.878Z,100655.03
2022-08-30T06:53:37.727Z,100658.59
2022-08-30T06:58:41.983Z,100662.06
2022-08-30T07:03:45.124Z,100660.13
2022-08-30T07:08:50.527Z,100660.13
2022-08-30T07:14:01.391Z,100656.31
2022-08-30T07:19:05.803Z,100657.06
2022-08-30T07:24:10.116Z,100657.91
2022-08-30T07:29:14.440Z,100660.38
2022-08-30T07:34:19.778Z,100663.97
2022-08-30T07:39:24.151Z,100667.41
2022-08-30T07:44:28.499Z,100671.69
2022-08-30T07:49:31.181Z,100675.16
2022-08-30T07:54:34.115Z,100680.47
2022-08-30T07:59:38.120Z,100678.59
2022-08-30T08:04:40.859Z,100677.53
2022-08-30T08:09:43.648Z,100680.97
2022-08-30T08:14:47.664Z,100683.53
2022-08-30T08:19:50.344Z,100687.00
2022-08-30T08:24:53.037Z,100686.03
2022-08-30T08:29:57.098Z,100679.59
2022-08-30T08:34:59.771Z,100675.78
2022-08-30T08:40:02.524Z,100678.38
2022-08-30T08:45:12.532Z,100684.66
2022-08-30T08:50:20.072Z,100695.25
2022-08-30T08:55:24.901Z,100677.91
2022-08-30T09:00:29.971Z,100681.47
2022-08-30T09:05:38.990Z,100684.91
2022-08-30T09:10:51.164Z,100672.13
2022-08-30T09:15:59.478Z,100679.84
2022-08-30T09:21:07.415Z,100674.44
2022-08-30T09:26:10.586Z,100674.19
2022-08-30T09:31:22.302Z,100674.91
2022-08-30T09:36:31.756Z,100671.25
2022-08-30T09:41:42.783Z,100664.72
2022-08-30T09:46:50.843Z,100674.41
2022-08-30T09:52:00.425Z,100664.34
2022-08-30T09:57:13.242Z,100671.34
2022-08-30T10:02:44.120Z,100662.22
2022-08-30T10:07:59.096Z,100655.84
2022-08-30T10:13:15.409Z,100658.41
2022-08-30T10:18:26.689Z,100649.28
2022-08-30T10:23:33.785Z,100648.09
2022-08-30T10:28:43.052Z,100641.81
2022-08-30T10:33:57.280Z,100633.31
2022-08-30T10:39:02.220Z,100636.88
2022-08-30T10:44:12.245Z,100630.31
2022-08-30T10:49:20.620Z,100629.47
2022-08-30T10:54:32.586Z,100622.19
2022-08-30T10:59:40.223Z,100618.38
2022-08-30T11:05:04.393Z,100622.81
2022-08-30T11:10:25.782Z,100622.81
2022-08-30T11:15:32.242Z,100620.81
2022-08-30T11:20:42.016Z,100614.28
2022-08-30T11:25:57.409Z,100619.97
2022-08-30T11:31:07.234Z,100620.44
2022-08-30T11:36:13.493Z,100619.31
2022-08-30T11:41:34.188Z,100617.44
2022-08-30T11:46:40.893Z,100613.50
2022-08-30T11:57:37.427Z,100623.59
2022-08-30T12:02:49.963Z,100611.88
2022-08-30T12:08:03.082Z,100609.91
2022-08-30T12:13:07.170Z,100610.75
2022-08-30T12:18:31.483Z,100604.59
2022-08-30T12:23:44.551Z,100598.19
2022-08-30T12:28:50.713Z,100602.63
2022-08-30T12:33:56.645Z,100602.47
2022-08-30T12:39:10.865Z,100592.47
2022-08-30T12:44:17.064Z,100592.00
2022-08-30T12:49:21.909Z,100581.84
2022-08-30T12:54:31.782Z,100570.00
2022-08-30T12:59:52.859Z,100566.19
2022-08-30T13:04:58.008Z,100558.06
2022-08-30T13:10:08.682Z,100562.09
2022-08-30T13:15:20.138Z,100567.44
2022-08-30T13:20:26.375Z,100564.97
2022-08-30T13:25:32.801Z,100570.66
2022-08-30T13:30:36.359Z,100572.38
2022-08-30T13:35:39.491Z,100566.81
2022-08-30T13:40:44.408Z,100554.59
2022-08-30T13:45:47.401Z,100559.75
2022-08-30T13:50:50.206Z,100560.88
2022-08-30T13:55:54.588Z,100563.13
2022-08-30T14:00:57.463Z,100562.63
2022-08-30T14:06:29.518Z,100568.78
2022-08-30T14:11:28.236Z,100566.72
2022-08-30T14:16:31.798Z,100558.31
2022-08-30T14:21:34.677Z,100567.34
2022-08-30T14:26:41.928Z,100566.09
2022-08-30T14:31:47.024Z,100558.31
2022-08-30T14:36:50.428Z,100555.53
2022-08-30T14:41:56.541Z,100565.03
2022-08-30T14:46:59.336Z,100552.44
2022-08-30T14:52:03.813Z,100546.97
2022-08-30T14:57:07.835Z,100553.59
2022-08-30T15:02:10.682Z,100547.63
2022-08-30T15:07:13.916Z,100546.13
2022-08-30T15:12:18.177Z,100548.91
2022-08-30T15:17:20.981Z,100542.66
2022-08-30T15:22:23.728Z,100537.81
2022-08-30T15:27:28.610Z,100535.09
2022-08-30T15:32:32.095Z,100529.41
2022-08-30T15:37:35.114Z,100537.69
2022-08-30T15:42:39.331Z,100535.16
2022-08-30T15:47:42.294Z,100537.53
2022-08-30T15:52:45.023Z,100532.69
2022-08-30T15:57:49.097Z,100525.13
2022-08-30T16:02:53.212Z,100524.63
2022-08-30T16:07:56.002Z,100526.22
2022-08-30T16:13:01.633Z,100522.34
2022-08-30T16:18:05.789Z,100516.75
2022-08-30T16:23:08.789Z,100514.88
2022-08-30T16:28:12.834Z,100512.88
2022-08-30T16:33:15.955Z,100507.28
2022-08-30T16:38:18.864Z,100508.72
2022-08-30T16:43:23.937Z,100510.44
2022-08-30T16:48:26.723Z,100504.59
2022-08-30T16:53:30.092Z,100503.59
2022-08-30T16:58:34.237Z,100506.06
2022-08-30T17:03:37.694Z,100497.75
2022-08-30T17:08:42.025Z,100502.91
2022-08-30T17:13:46.106Z,100507.19
2022-08-30T17:18:48.946Z,100509.22
2022-08-30T17:23:51.894Z,100505.19
2022-08-30T17:28:55.985Z,100512.06
2022-08-30T17:34:03.318Z,100512.06
2022-08-30T17:39:11.042Z,100512.78
2022-08-30T17:44:15.758Z,100509.09
2022-08-30T17:49:18.711Z,100510.50
2022-08-30T17:54:21.908Z,100511.94
2022-08-30T17:59:29.203Z,100516.69
2022-08-30T18:04:35.409Z,100522.84
2022-08-30T18:09:38.603Z,100536.16
2022-08-30T18:14:42.590Z,100544.59
2022-08-30T18:19:46.095Z,100538.16
2022-08-30T18:24:49.500Z,100545.41
2022-08-30T18:29:53.553Z,100547.28
2022-08-30T18:34:56.364Z,100553.00
2022-08-30T18:40:01.100Z,100553.72
2022-08-30T18:45:14.706Z,100560.31
2022-08-30T18:50:18.576Z,100563.28
2022-08-30T18:55:22.837Z,100562.28
2022-08-30T19:00:26.919Z,100571.03
2022-08-30T19:05:29.880Z,100564.75
2022-08-30T19:10:33.429Z,100567.72
2022-08-30T19:15:37.597Z,100568.56
2022-08-30T19:20:40.575Z,100571.44
2022-08-30T19:25:44.624Z,100557.59
2022-08-30T19:30:49.381Z,100573.31
2022-08-30T19:35:52.202Z,100580.59
2022-08-30T19:40:58.931Z,100576.16
2022-08-30T19:46:03.111Z,100578.03
2022-08-30T19:51:08.306Z,100584.88
2022-08-30T19:56:11.372Z,100578.75
2022-08-30T20:01:32.524Z,100580.88
2022-08-30T20:06:37.025Z,100583.88
2022-08-30T20:11:42.167Z,100575.19
2022-08-30T20:16:47.446Z,100581.19
2022-08-30T20:21:50.229Z,100593.09
2022-08-30T20:26:53.870Z,100592.28
2022-08-30T20:31:58.035Z,100587.84
2022-08-30T20:37:00.892Z,100587.00
2022-08-30T20:42:04.138Z,100582.38
2022-08-30T20:47:08.452Z,100589.03
2022-08-30T20:52:11.296Z,100597.38
2022-08-30T20:57:14.879Z,100596.31
2022-08-30T21:02:19.065Z,100592.84
2022-08-30T21:07:21.847Z,100593.25
2022-08-30T21:12:25.122Z,100598.56
2022-08-30T21:17:30.195Z,100601.19
2022-08-30T21:22:32.939Z,100609.19
2022-08-30T21:27:35.830Z,100600.50
2022-08-30T21:32:39.915Z,100604.63
2022-08-30T21:37:42.634Z,100604.53
2022-08-30T21:42:48.296Z,100611.84
2022-08-30T21:47:52.286Z,100613.69
2022-08-30T21:52:54.971Z,100615.75
2022-08-30T21:57:57.668Z,100616.56
2022-08-30T22:03:01.798Z,100611.56
2022-08-30T22:08:04.852Z,100614.53
2022-08-30T22:13:10.035Z,100615.84
2022-08-30T22:18:14.715Z,100630.66
2022-08-30T22:23:19.111Z,100620.81
2022-08-30T22:28:23.307Z,100622.91
2022-08-30T22:33:27.422Z,100627.28
2022-08-30T22:38:30.099Z,100624.66
2022-08-30T22:43:32.936Z,100625.66
2022-08-30T22:48:38.412Z,100624.31
2022-08-30T22:53:41.812Z,100632.84
2022-08-30T22:58:45.494Z,100630.53
2022-08-30T23:03:49.981Z,100632.13
2022-08-30T23:08:52.801Z,100637.16
2022-08-30T23:13:55.655Z,100645.31
2022-08-30T23:18:59.789Z,100646.16
2022-08-30T23:24:20.157Z,100646.28
2022-08-30T23:29:40.938Z,100639.25
2022-08-30T23:35:02.805Z,100639.19
2022-08-30T23:40:24.559Z,100640.94
2022-08-30T23:45:45.136Z,100641.88
2022-08-30T23:51:06.697Z,100642.03
2022-08-30T23:56:28.804Z,100646.84
